Carroll, IA

3:03 AM CST on December 04, 2016 (GMT -0600)
Neu | | Change Station

Elev 1204 ft 42.04 °N, 94.79 °W | Updated 8 minutes ago

Overcast
Overcast
34 °F
Feels Like 26 °F
N
9
Wind Variable Wind from South

Today
High -- | Low -- °F
--% Chance of Precip.
Yesterday
High -- | Low -- °F
Precip. -- in
Pressure 30.00 in
Visibility 5.0 miles
Clouds Overcast 500 ft
Windchill 26 °F
Dew Point 34 °F
Humidity 100%
Rainfall 0.01 in
Snow Depth Not available.
7:31 AM 4:47 PM
Waxing Crescent, 21% visible
METAR KCIN 040855Z AUTO 17008KT 5SM BR OVC005 01/01 A3000 RMK AO2
Pressure 30.00 in
Visibility 5.0 miles
Clouds Overcast 500 ft
Windchill 26 °F
Dew Point 34 °F
Humidity 100%
Rainfall 0.01 in
Snow Depth Not available.
7:31 AM 4:47 PM
Waxing Crescent, 21% visible
METAR KCIN 040855Z AUTO 17008KT 5SM BR OVC005 01/01 A3000 RMK AO2

10-Day Weather Forecast

Almanac

Astronomy

Dec. 04, 2016 Rise Set
Actual Time
Civil Twilight
Nautical Twilight
Astronomical Twilight
Moon
Length of Visible Light
Length of Day
Tomorrow will be .
, % of the Moon is Illuminated

Today's Extremes

State Highs State Lows

Community

WunderPhotos

Upload Photos

1,955,587 photos uploaded!

WunderBlog® & News

Nearby

Air Quality

  Air Quality AQ Index Pollutant
Not available.

Snow Depth

Station Depth Elevation

Earthquake Activity

City Distance Mag. Time & Date
Minimum magnitude displayed is 2.5.

Coastal Water Temperatures

Place Temperature

Stations

Nearby Weather Stations

Station Location Temp. Windchill Dew Point Humidity Wind Precip. Elev Updated Type
                   

Watches & Warnings

There are currently no watches in effect.